Terminal Aerodrome Forecast
Issued by NWS

Home | Current Version | Previous Version | Text Only | Print | Product List | Glossary On
Versions: 1 2 3 4 5 6 7 8 9 10 11 12 13
779
FTUS43 KLSX 241735
TAFUIN
TAF
KUIN 241735Z 2418/2518 17009KT P6SM SCT040 BKN150
     FM242000 18009KT P6SM VCTS BKN050CB
     FM250000 16005KT P6SM SCT060 BKN150
     FM251000 18005KT 5SM -TSRA BKN040CB
     FM251600 17009KT P6SM BKN035=

USA.gov is the U.S. government's official web portal to all federal, state and local government web resources and services.